sensor_id;sensor_type;location;lat;lon;timestamp;P1;durP1;ratioP1;P2;durP2;ratioP2
9950;SDS011;24074;49.254;6.702;2024-02-15T00:02:14;7.07;;;4.67;;
9950;SDS011;24074;49.254;6.702;2024-02-15T00:04:40;8.83;;;4.90;;
9950;SDS011;24074;49.254;6.702;2024-02-15T00:07:05;7.23;;;4.60;;
9950;SDS011;24074;49.254;6.702;2024-02-15T00:09:31;7.10;;;4.50;;
9950;SDS011;24074;49.254;6.702;2024-02-15T00:11:57;5.60;;;3.90;;
9950;SDS011;24074;49.254;6.702;2024-02-15T00:14:24;8.30;;;4.47;;
9950;SDS011;24074;49.254;6.702;2024-02-15T00:16:50;5.93;;;4.50;;
9950;SDS011;24074;49.254;6.702;2024-02-15T00:19:16;8.40;;;4.13;;
9950;SDS011;24074;49.254;6.702;2024-02-15T00:21:45;8.73;;;4.87;;
9950;SDS011;24074;49.254;6.702;2024-02-15T00:24:11;6.40;;;4.37;;
9950;SDS011;24074;49.254;6.702;2024-02-15T00:26:39;7.70;;;4.30;;
9950;SDS011;24074;49.254;6.702;2024-02-15T00:29:05;6.47;;;4.00;;
9950;SDS011;24074;49.254;6.702;2024-02-15T00:31:31;8.27;;;4.30;;
9950;SDS011;24074;49.254;6.702;2024-02-15T00:33:57;6.17;;;3.97;;
9950;SDS011;24074;49.254;6.702;2024-02-15T00:36:24;6.80;;;4.03;;
9950;SDS011;24074;49.254;6.702;2024-02-15T00:38:50;6.50;;;3.83;;
9950;SDS011;24074;49.254;6.702;2024-02-15T00:41:16;6.70;;;3.97;;
9950;SDS011;24074;49.254;6.702;2024-02-15T00:43:42;6.73;;;4.13;;
9950;SDS011;24074;49.254;6.702;2024-02-15T00:46:08;6.10;;;3.83;;
9950;SDS011;24074;49.254;6.702;2024-02-15T00:48:34;7.87;;;4.00;;
9950;SDS011;24074;49.254;6.702;2024-02-15T00:50:59;8.60;;;3.63;;
9950;SDS011;24074;49.254;6.702;2024-02-15T00:53:25;6.43;;;3.67;;
9950;SDS011;24074;49.254;6.702;2024-02-15T00:55:51;8.37;;;4.30;;
9950;SDS011;24074;49.254;6.702;2024-02-15T00:58:17;7.07;;;4.03;;
9950;SDS011;24074;49.254;6.702;2024-02-15T01:00:42;8.30;;;4.30;;
9950;SDS011;24074;49.254;6.702;2024-02-15T01:03:08;6.97;;;3.93;;
9950;SDS011;24074;49.254;6.702;2024-02-15T01:05:33;6.30;;;3.93;;
9950;SDS011;24074;49.254;6.702;2024-02-15T01:07:59;8.67;;;3.57;;
9950;SDS011;24074;49.254;6.702;2024-02-15T01:10:25;5.70;;;3.43;;
9950;SDS011;24074;49.254;6.702;2024-02-15T01:12:51;7.80;;;3.80;;
9950;SDS011;24074;49.254;6.702;2024-02-15T01:15:17;4.70;;;3.37;;
9950;SDS011;24074;49.254;6.702;2024-02-15T01:17:45;8.63;;;3.70;;
9950;SDS011;24074;49.254;6.702;2024-02-15T01:20:10;7.93;;;3.90;;
9950;SDS011;24074;49.254;6.702;2024-02-15T01:22:36;8.17;;;3.90;;
9950;SDS011;24074;49.254;6.702;2024-02-15T01:25:02;7.23;;;3.70;;
9950;SDS011;24074;49.254;6.702;2024-02-15T01:27:28;7.77;;;3.63;;
9950;SDS011;24074;49.254;6.702;2024-02-15T01:29:58;5.63;;;3.50;;
9950;SDS011;24074;49.254;6.702;2024-02-15T01:32:24;11.77;;;3.77;;
9950;SDS011;24074;49.254;6.702;2024-02-15T01:34:50;9.23;;;3.60;;
9950;SDS011;24074;49.254;6.702;2024-02-15T01:37:19;10.70;;;3.57;;
9950;SDS011;24074;49.254;6.702;2024-02-15T01:39:45;8.43;;;3.17;;
9950;SDS011;24074;49.254;6.702;2024-02-15T01:42:11;7.63;;;3.53;;
9950;SDS011;24074;49.254;6.702;2024-02-15T01:44:39;5.93;;;3.13;;
9950;SDS011;24074;49.254;6.702;2024-02-15T01:47:05;6.37;;;3.00;;
9950;SDS011;24074;49.254;6.702;2024-02-15T01:49:31;5.67;;;3.10;;
9950;SDS011;24074;49.254;6.702;2024-02-15T01:51:58;5.17;;;2.70;;
9950;SDS011;24074;49.254;6.702;2024-02-15T01:54:25;7.00;;;3.03;;
9950;SDS011;24074;49.254;6.702;2024-02-15T01:56:52;7.90;;;2.80;;
9950;SDS011;24074;49.254;6.702;2024-02-15T01:59:19;4.73;;;2.97;;
9950;SDS011;24074;49.254;6.702;2024-02-15T02:01:46;10.00;;;3.00;;
9950;SDS011;24074;49.254;6.702;2024-02-15T02:04:12;7.60;;;3.30;;
9950;SDS011;24074;49.254;6.702;2024-02-15T02:06:37;8.90;;;3.00;;
9950;SDS011;24074;49.254;6.702;2024-02-15T02:09:03;4.57;;;2.80;;
9950;SDS011;24074;49.254;6.702;2024-02-15T02:11:29;7.20;;;2.70;;
9950;SDS011;24074;49.254;6.702;2024-02-15T02:13:55;10.60;;;3.07;;
9950;SDS011;24074;49.254;6.702;2024-02-15T02:16:24;6.03;;;2.73;;
9950;SDS011;24074;49.254;6.702;2024-02-15T02:18:56;6.33;;;2.73;;
9950;SDS011;24074;49.254;6.702;2024-02-15T02:21:23;5.77;;;3.10;;
9950;SDS011;24074;49.254;6.702;2024-02-15T02:23:52;8.43;;;3.00;;
9950;SDS011;24074;49.254;6.702;2024-02-15T02:26:19;8.03;;;3.33;;
9950;SDS011;24074;49.254;6.702;2024-02-15T02:28:46;7.47;;;2.57;;
9950;SDS011;24074;49.254;6.702;2024-02-15T02:31:12;7.00;;;2.73;;
9950;SDS011;24074;49.254;6.702;2024-02-15T02:33:37;9.60;;;3.10;;
9950;SDS011;24074;49.254;6.702;2024-02-15T02:36:03;4.00;;;2.67;;
9950;SDS011;24074;49.254;6.702;2024-02-15T02:38:34;5.73;;;2.70;;
9950;SDS011;24074;49.254;6.702;2024-02-15T02:41:02;7.93;;;2.97;;
9950;SDS011;24074;49.254;6.702;2024-02-15T02:43:28;7.63;;;3.20;;
9950;SDS011;24074;49.254;6.702;2024-02-15T02:45:54;5.47;;;3.10;;
9950;SDS011;24074;49.254;6.702;2024-02-15T02:48:19;5.73;;;3.27;;
9950;SDS011;24074;49.254;6.702;2024-02-15T02:50:45;4.97;;;3.00;;
9950;SDS011;24074;49.254;6.702;2024-02-15T02:53:10;3.80;;;2.97;;
9950;SDS011;24074;49.254;6.702;2024-02-15T02:55:40;5.90;;;3.30;;
9950;SDS011;24074;49.254;6.702;2024-02-15T02:58:07;5.60;;;3.00;;
9950;SDS011;24074;49.254;6.702;2024-02-15T03:00:33;6.53;;;3.20;;
9950;SDS011;24074;49.254;6.702;2024-02-15T03:02:59;6.23;;;3.07;;
9950;SDS011;24074;49.254;6.702;2024-02-15T03:05:28;7.93;;;2.90;;
9950;SDS011;24074;49.254;6.702;2024-02-15T03:07:54;7.53;;;2.87;;
9950;SDS011;24074;49.254;6.702;2024-02-15T03:10:20;6.90;;;2.90;;
9950;SDS011;24074;49.254;6.702;2024-02-15T03:12:45;6.60;;;3.00;;
9950;SDS011;24074;49.254;6.702;2024-02-15T03:15:14;7.23;;;2.90;;
9950;SDS011;24074;49.254;6.702;2024-02-15T03:17:40;8.13;;;3.10;;
9950;SDS011;24074;49.254;6.702;2024-02-15T03:20:09;4.63;;;2.70;;
9950;SDS011;24074;49.254;6.702;2024-02-15T03:22:38;6.00;;;2.60;;
9950;SDS011;24074;49.254;6.702;2024-02-15T03:25:07;6.57;;;2.60;;
9950;SDS011;24074;49.254;6.702;2024-02-15T03:27:33;7.13;;;2.80;;
9950;SDS011;24074;49.254;6.702;2024-02-15T03:30:00;4.27;;;2.77;;
9950;SDS011;24074;49.254;6.702;2024-02-15T03:32:26;8.80;;;3.00;;
9950;SDS011;24074;49.254;6.702;2024-02-15T03:34:52;6.57;;;2.43;;
9950;SDS011;24074;49.254;6.702;2024-02-15T03:37:19;6.10;;;2.70;;
9950;SDS011;24074;49.254;6.702;2024-02-15T03:39:45;5.60;;;3.10;;
9950;SDS011;24074;49.254;6.702;2024-02-15T03:42:11;4.33;;;2.50;;
9950;SDS011;24074;49.254;6.702;2024-02-15T03:44:37;5.27;;;2.67;;
9950;SDS011;24074;49.254;6.702;2024-02-15T03:47:03;6.93;;;3.00;;
9950;SDS011;24074;49.254;6.702;2024-02-15T03:49:30;5.43;;;3.23;;
9950;SDS011;24074;49.254;6.702;2024-02-15T03:51:56;4.73;;;3.27;;
9950;SDS011;24074;49.254;6.702;2024-02-15T03:54:24;4.37;;;3.20;;
9950;SDS011;24074;49.254;6.702;2024-02-15T03:56:50;7.23;;;3.30;;
9950;SDS011;24074;49.254;6.702;2024-02-15T03:59:19;7.43;;;3.03;;
9950;SDS011;24074;49.254;6.702;2024-02-15T04:01:51;7.90;;;3.33;;
9950;SDS011;24074;49.254;6.702;2024-02-15T04:04:21;7.80;;;3.13;;
9950;SDS011;24074;49.254;6.702;2024-02-15T04:06:50;9.07;;;3.63;;
9950;SDS011;24074;49.254;6.702;2024-02-15T04:09:19;5.43;;;3.33;;
9950;SDS011;24074;49.254;6.702;2024-02-15T04:11:46;6.40;;;3.17;;
9950;SDS011;24074;49.254;6.702;2024-02-15T04:14:17;11.50;;;3.80;;
9950;SDS011;24074;49.254;6.702;2024-02-15T04:16:43;6.70;;;3.57;;
9950;SDS011;24074;49.254;6.702;2024-02-15T04:19:10;9.57;;;3.47;;
9950;SDS011;24074;49.254;6.702;2024-02-15T04:21:36;9.10;;;3.67;;
9950;SDS011;24074;49.254;6.702;2024-02-15T04:24:01;6.47;;;3.73;;
9950;SDS011;24074;49.254;6.702;2024-02-15T04:26:27;7.07;;;3.60;;
9950;SDS011;24074;49.254;6.702;2024-02-15T04:28:55;5.67;;;3.23;;
9950;SDS011;24074;49.254;6.702;2024-02-15T04:31:20;8.33;;;3.57;;
9950;SDS011;24074;49.254;6.702;2024-02-15T04:33:51;9.23;;;3.57;;
9950;SDS011;24074;49.254;6.702;2024-02-15T04:36:20;10.10;;;4.00;;
9950;SDS011;24074;49.254;6.702;2024-02-15T04:38:50;7.47;;;3.80;;
9950;SDS011;24074;49.254;6.702;2024-02-15T04:41:17;9.23;;;4.43;;
9950;SDS011;24074;49.254;6.702;2024-02-15T04:43:48;6.80;;;3.93;;
9950;SDS011;24074;49.254;6.702;2024-02-15T04:46:17;7.47;;;3.87;;
9950;SDS011;24074;49.254;6.702;2024-02-15T04:48:47;5.93;;;3.70;;
9950;SDS011;24074;49.254;6.702;2024-02-15T04:51:14;6.23;;;3.80;;
9950;SDS011;24074;49.254;6.702;2024-02-15T04:53:41;6.13;;;4.33;;
9950;SDS011;24074;49.254;6.702;2024-02-15T04:56:07;8.37;;;4.87;;
9950;SDS011;24074;49.254;6.702;2024-02-15T04:58:38;7.27;;;5.03;;
9950;SDS011;24074;49.254;6.702;2024-02-15T05:01:11;6.90;;;4.80;;
9950;SDS011;24074;49.254;6.702;2024-02-15T05:03:37;7.93;;;5.13;;
9950;SDS011;24074;49.254;6.702;2024-02-15T05:06:03;7.93;;;5.10;;
9950;SDS011;24074;49.254;6.702;2024-02-15T05:08:33;10.50;;;5.17;;
9950;SDS011;24074;49.254;6.702;2024-02-15T05:11:01;8.20;;;4.73;;
9950;SDS011;24074;49.254;6.702;2024-02-15T05:13:29;5.40;;;4.10;;
9950;SDS011;24074;49.254;6.702;2024-02-15T05:15:55;10.30;;;4.47;;
9950;SDS011;24074;49.254;6.702;2024-02-15T05:18:20;7.20;;;4.37;;
9950;SDS011;24074;49.254;6.702;2024-02-15T05:20:49;6.43;;;4.20;;
9950;SDS011;24074;49.254;6.702;2024-02-15T05:23:14;6.90;;;4.23;;
9950;SDS011;24074;49.254;6.702;2024-02-15T05:25:43;7.40;;;4.53;;
9950;SDS011;24074;49.254;6.702;2024-02-15T05:28:09;9.53;;;4.23;;
9950;SDS011;24074;49.254;6.702;2024-02-15T05:30:34;5.80;;;4.23;;
9950;SDS011;24074;49.254;6.702;2024-02-15T05:33:02;8.07;;;3.77;;
9950;SDS011;24074;49.254;6.702;2024-02-15T05:35:28;8.83;;;3.93;;
9950;SDS011;24074;49.254;6.702;2024-02-15T05:37:54;9.47;;;4.20;;
9950;SDS011;24074;49.254;6.702;2024-02-15T05:40:21;6.03;;;3.47;;
9950;SDS011;24074;49.254;6.702;2024-02-15T05:42:46;7.97;;;4.00;;
9950;SDS011;24074;49.254;6.702;2024-02-15T05:47:50;4.90;;;3.60;;
9950;SDS011;24074;49.254;6.702;2024-02-15T05:50:16;8.07;;;3.63;;
9950;SDS011;24074;49.254;6.702;2024-02-15T05:52:45;7.07;;;3.83;;
9950;SDS011;24074;49.254;6.702;2024-02-15T05:55:11;8.47;;;3.87;;
9950;SDS011;24074;49.254;6.702;2024-02-15T05:57:41;5.70;;;3.77;;
9950;SDS011;24074;49.254;6.702;2024-02-15T06:00:10;8.77;;;4.20;;
9950;SDS011;24074;49.254;6.702;2024-02-15T06:02:37;5.40;;;3.63;;
9950;SDS011;24074;49.254;6.702;2024-02-15T06:05:03;9.63;;;4.10;;
9950;SDS011;24074;49.254;6.702;2024-02-15T06:07:30;6.17;;;3.50;;
9950;SDS011;24074;49.254;6.702;2024-02-15T06:09:58;7.03;;;3.67;;
9950;SDS011;24074;49.254;6.702;2024-02-15T06:12:28;9.27;;;3.77;;
9950;SDS011;24074;49.254;6.702;2024-02-15T06:14:54;9.40;;;3.50;;
9950;SDS011;24074;49.254;6.702;2024-02-15T06:17:20;5.33;;;3.50;;
9950;SDS011;24074;49.254;6.702;2024-02-15T06:19:45;6.27;;;3.77;;
9950;SDS011;24074;49.254;6.702;2024-02-15T06:22:11;7.07;;;3.87;;
9950;SDS011;24074;49.254;6.702;2024-02-15T06:24:37;5.77;;;3.43;;
9950;SDS011;24074;49.254;6.702;2024-02-15T06:27:03;6.23;;;3.60;;
9950;SDS011;24074;49.254;6.702;2024-02-15T06:29:29;9.93;;;3.70;;
9950;SDS011;24074;49.254;6.702;2024-02-15T06:32:13;8.53;;;3.87;;
9950;SDS011;24074;49.254;6.702;2024-02-15T06:34:57;9.03;;;3.30;;
9950;SDS011;24074;49.254;6.702;2024-02-15T06:37:41;5.57;;;3.40;;
9950;SDS011;24074;49.254;6.702;2024-02-15T06:40:25;5.07;;;3.43;;
9950;SDS011;24074;49.254;6.702;2024-02-15T06:42:51;5.97;;;3.87;;
9950;SDS011;24074;49.254;6.702;2024-02-15T06:45:16;7.63;;;4.00;;
9950;SDS011;24074;49.254;6.702;2024-02-15T06:47:45;6.70;;;3.53;;
9950;SDS011;24074;49.254;6.702;2024-02-15T06:50:11;7.80;;;3.43;;
9950;SDS011;24074;49.254;6.702;2024-02-15T06:52:38;8.97;;;3.80;;
9950;SDS011;24074;49.254;6.702;2024-02-15T06:55:07;6.07;;;3.30;;
9950;SDS011;24074;49.254;6.702;2024-02-15T06:57:34;5.10;;;3.37;;
9950;SDS011;24074;49.254;6.702;2024-02-15T07:00:03;6.03;;;3.87;;
9950;SDS011;24074;49.254;6.702;2024-02-15T07:02:33;6.67;;;3.50;;
9950;SDS011;24074;49.254;6.702;2024-02-15T07:04:59;6.73;;;3.30;;
9950;SDS011;24074;49.254;6.702;2024-02-15T07:07:24;7.37;;;3.97;;
9950;SDS011;24074;49.254;6.702;2024-02-15T07:09:50;5.97;;;3.60;;
9950;SDS011;24074;49.254;6.702;2024-02-15T07:12:16;6.37;;;3.50;;
9950;SDS011;24074;49.254;6.702;2024-02-15T07:14:46;5.93;;;3.50;;
9950;SDS011;24074;49.254;6.702;2024-02-15T07:17:12;6.43;;;3.67;;
9950;SDS011;24074;49.254;6.702;2024-02-15T07:19:41;6.00;;;4.27;;
9950;SDS011;24074;49.254;6.702;2024-02-15T07:22:09;9.67;;;6.10;;
9950;SDS011;24074;49.254;6.702;2024-02-15T07:24:36;8.63;;;5.77;;
9950;SDS011;24074;49.254;6.702;2024-02-15T07:27:03;8.50;;;4.90;;
9950;SDS011;24074;49.254;6.702;2024-02-15T07:29:30;8.23;;;5.47;;
9950;SDS011;24074;49.254;6.702;2024-02-15T07:31:57;10.17;;;6.67;;
9950;SDS011;24074;49.254;6.702;2024-02-15T07:34:24;8.70;;;6.70;;
9950;SDS011;24074;49.254;6.702;2024-02-15T07:36:51;13.20;;;8.60;;
9950;SDS011;24074;49.254;6.702;2024-02-15T07:39:17;9.83;;;6.67;;
9950;SDS011;24074;49.254;6.702;2024-02-15T07:41:49;6.33;;;3.90;;
9950;SDS011;24074;49.254;6.702;2024-02-15T07:44:16;6.20;;;4.77;;
9950;SDS011;24074;49.254;6.702;2024-02-15T07:46:42;8.40;;;5.90;;
9950;SDS011;24074;49.254;6.702;2024-02-15T07:49:08;9.73;;;5.53;;
9950;SDS011;24074;49.254;6.702;2024-02-15T07:51:34;5.00;;;3.80;;
9950;SDS011;24074;49.254;6.702;2024-02-15T07:54:01;6.20;;;3.60;;
9950;SDS011;24074;49.254;6.702;2024-02-15T07:56:26;6.70;;;3.60;;
9950;SDS011;24074;49.254;6.702;2024-02-15T07:58:52;4.87;;;3.60;;
9950;SDS011;24074;49.254;6.702;2024-02-15T08:01:18;6.00;;;3.50;;
9950;SDS011;24074;49.254;6.702;2024-02-15T08:03:46;5.33;;;3.30;;
9950;SDS011;24074;49.254;6.702;2024-02-15T08:06:12;4.40;;;3.27;;
9950;SDS011;24074;49.254;6.702;2024-02-15T08:08:41;4.07;;;3.27;;
9950;SDS011;24074;49.254;6.702;2024-02-15T08:11:10;6.60;;;3.20;;
9950;SDS011;24074;49.254;6.702;2024-02-15T08:13:46;4.47;;;3.30;;
9950;SDS011;24074;49.254;6.702;2024-02-15T08:16:15;4.53;;;3.10;;
9950;SDS011;24074;49.254;6.702;2024-02-15T08:18:41;4.70;;;3.17;;
9950;SDS011;24074;49.254;6.702;2024-02-15T08:21:08;5.60;;;3.10;;
9950;SDS011;24074;49.254;6.702;2024-02-15T08:23:35;5.63;;;3.70;;
9950;SDS011;24074;49.254;6.702;2024-02-15T08:26:01;3.50;;;3.20;;
9950;SDS011;24074;49.254;6.702;2024-02-15T08:28:27;4.73;;;3.50;;
9950;SDS011;24074;49.254;6.702;2024-02-15T08:30:55;5.47;;;3.33;;
9950;SDS011;24074;49.254;6.702;2024-02-15T08:33:24;5.50;;;3.60;;
9950;SDS011;24074;49.254;6.702;2024-02-15T08:35:49;5.77;;;4.07;;
9950;SDS011;24074;49.254;6.702;2024-02-15T08:38:15;5.27;;;3.53;;
9950;SDS011;24074;49.254;6.702;2024-02-15T08:40:42;4.57;;;3.20;;
9950;SDS011;24074;49.254;6.702;2024-02-15T08:43:09;5.60;;;2.77;;
9950;SDS011;24074;49.254;6.702;2024-02-15T08:45:35;4.27;;;3.10;;
9950;SDS011;24074;49.254;6.702;2024-02-15T08:48:01;5.23;;;3.10;;
9950;SDS011;24074;49.254;6.702;2024-02-15T08:50:29;4.90;;;2.90;;
9950;SDS011;24074;49.254;6.702;2024-02-15T08:52:55;6.63;;;3.27;;
9950;SDS011;24074;49.254;6.702;2024-02-15T08:55:21;4.57;;;3.10;;
9950;SDS011;24074;49.254;6.702;2024-02-15T08:57:52;4.83;;;2.77;;
9950;SDS011;24074;49.254;6.702;2024-02-15T09:00:19;7.33;;;3.27;;
9950;SDS011;24074;49.254;6.702;2024-02-15T09:02:45;5.13;;;3.13;;
9950;SDS011;24074;49.254;6.702;2024-02-15T09:05:12;3.67;;;2.60;;
9950;SDS011;24074;49.254;6.702;2024-02-15T09:07:41;8.60;;;3.30;;
9950;SDS011;24074;49.254;6.702;2024-02-15T09:10:08;5.50;;;3.20;;
9950;SDS011;24074;49.254;6.702;2024-02-15T09:12:35;4.07;;;3.13;;
9950;SDS011;24074;49.254;6.702;2024-02-15T09:15:03;4.20;;;3.13;;
9950;SDS011;24074;49.254;6.702;2024-02-15T09:17:29;4.00;;;3.00;;
9950;SDS011;24074;49.254;6.702;2024-02-15T09:19:57;5.03;;;3.10;;
9950;SDS011;24074;49.254;6.702;2024-02-15T09:22:23;4.17;;;3.10;;
9950;SDS011;24074;49.254;6.702;2024-02-15T09:24:49;5.87;;;3.20;;
9950;SDS011;24074;49.254;6.702;2024-02-15T09:27:14;6.47;;;3.17;;
9950;SDS011;24074;49.254;6.702;2024-02-15T09:29:40;6.03;;;3.00;;
9950;SDS011;24074;49.254;6.702;2024-02-15T09:32:06;3.73;;;2.80;;
9950;SDS011;24074;49.254;6.702;2024-02-15T09:34:32;4.70;;;2.70;;
9950;SDS011;24074;49.254;6.702;2024-02-15T09:37:01;3.47;;;2.37;;
9950;SDS011;24074;49.254;6.702;2024-02-15T09:39:30;6.17;;;3.13;;
9950;SDS011;24074;49.254;6.702;2024-02-15T09:41:55;3.60;;;2.63;;
9950;SDS011;24074;49.254;6.702;2024-02-15T09:44:23;4.27;;;2.47;;
9950;SDS011;24074;49.254;6.702;2024-02-15T09:46:57;4.03;;;2.73;;
9950;SDS011;24074;49.254;6.702;2024-02-15T09:49:26;5.57;;;2.50;;
9950;SDS011;24074;49.254;6.702;2024-02-15T09:51:51;4.30;;;2.30;;
9950;SDS011;24074;49.254;6.702;2024-02-15T09:54:18;4.77;;;2.70;;
9950;SDS011;24074;49.254;6.702;2024-02-15T09:56:47;3.30;;;2.43;;
9950;SDS011;24074;49.254;6.702;2024-02-15T09:59:16;4.93;;;2.30;;
9950;SDS011;24074;49.254;6.702;2024-02-15T10:01:43;4.67;;;2.30;;
9950;SDS011;24074;49.254;6.702;2024-02-15T10:04:12;5.43;;;2.40;;
9950;SDS011;24074;49.254;6.702;2024-02-15T10:06:41;4.07;;;2.40;;
9950;SDS011;24074;49.254;6.702;2024-02-15T10:09:23;4.53;;;2.30;;
9950;SDS011;24074;49.254;6.702;2024-02-15T10:11:56;2.40;;;2.13;;
9950;SDS011;24074;49.254;6.702;2024-02-15T10:14:27;3.30;;;2.23;;
9950;SDS011;24074;49.254;6.702;2024-02-15T10:16:54;4.13;;;2.27;;
9950;SDS011;24074;49.254;6.702;2024-02-15T10:19:20;3.30;;;2.20;;
9950;SDS011;24074;49.254;6.702;2024-02-15T10:21:52;3.80;;;1.90;;
9950;SDS011;24074;49.254;6.702;2024-02-15T10:24:24;3.77;;;2.43;;
9950;SDS011;24074;49.254;6.702;2024-02-15T10:26:50;4.43;;;2.50;;
9950;SDS011;24074;49.254;6.702;2024-02-15T10:29:16;3.87;;;2.23;;
9950;SDS011;24074;49.254;6.702;2024-02-15T10:31:55;4.03;;;2.60;;
9950;SDS011;24074;49.254;6.702;2024-02-15T10:34:23;5.77;;;2.70;;
9950;SDS011;24074;49.254;6.702;2024-02-15T10:36:52;3.97;;;2.40;;
9950;SDS011;24074;49.254;6.702;2024-02-15T10:39:19;4.17;;;2.70;;
9950;SDS011;24074;49.254;6.702;2024-02-15T10:44:15;4.20;;;2.50;;
9950;SDS011;24074;49.254;6.702;2024-02-15T10:46:42;5.43;;;2.60;;
9950;SDS011;24074;49.254;6.702;2024-02-15T10:49:11;6.10;;;2.50;;
9950;SDS011;24074;49.254;6.702;2024-02-15T10:51:39;4.03;;;2.57;;
9950;SDS011;24074;49.254;6.702;2024-02-15T10:54:08;4.50;;;2.47;;
9950;SDS011;24074;49.254;6.702;2024-02-15T10:56:41;4.23;;;2.60;;
9950;SDS011;24074;49.254;6.702;2024-02-15T10:59:18;5.07;;;2.77;;
9950;SDS011;24074;49.254;6.702;2024-02-15T11:01:47;4.43;;;2.80;;
9950;SDS011;24074;49.254;6.702;2024-02-15T11:04:19;4.37;;;2.70;;
9950;SDS011;24074;49.254;6.702;2024-02-15T11:06:51;3.73;;;2.73;;
9950;SDS011;24074;49.254;6.702;2024-02-15T11:09:20;4.90;;;3.10;;
9950;SDS011;24074;49.254;6.702;2024-02-15T11:11:47;4.90;;;2.60;;
9950;SDS011;24074;49.254;6.702;2024-02-15T11:16:59;4.53;;;2.93;;
9950;SDS011;24074;49.254;6.702;2024-02-15T11:19:43;3.53;;;2.30;;
9950;SDS011;24074;49.254;6.702;2024-02-15T11:22:15;4.10;;;2.47;;
9950;SDS011;24074;49.254;6.702;2024-02-15T11:24:51;3.27;;;2.27;;
9950;SDS011;24074;49.254;6.702;2024-02-15T11:27:30;3.67;;;2.50;;
9950;SDS011;24074;49.254;6.702;2024-02-15T11:30:00;5.03;;;2.30;;
9950;SDS011;24074;49.254;6.702;2024-02-15T11:32:40;4.57;;;2.37;;
9950;SDS011;24074;49.254;6.702;2024-02-15T11:40:13;3.43;;;2.13;;
9950;SDS011;24074;49.254;6.702;2024-02-15T11:42:39;6.73;;;2.60;;
9950;SDS011;24074;49.254;6.702;2024-02-15T11:45:08;7.27;;;2.60;;
9950;SDS011;24074;49.254;6.702;2024-02-15T11:47:36;3.93;;;2.30;;
9950;SDS011;24074;49.254;6.702;2024-02-15T11:50:07;5.37;;;2.47;;
9950;SDS011;24074;49.254;6.702;2024-02-15T11:52:40;3.90;;;2.60;;
9950;SDS011;24074;49.254;6.702;2024-02-15T11:55:07;4.60;;;2.30;;
9950;SDS011;24074;49.254;6.702;2024-02-15T11:57:38;3.03;;;1.90;;
9950;SDS011;24074;49.254;6.702;2024-02-15T12:00:25;4.70;;;2.30;;
9950;SDS011;24074;49.254;6.702;2024-02-15T12:03:10;3.40;;;2.23;;
9950;SDS011;24074;49.254;6.702;2024-02-15T12:05:56;4.63;;;2.20;;
9950;SDS011;24074;49.254;6.702;2024-02-15T12:08:51;4.70;;;2.50;;
9950;SDS011;24074;49.254;6.702;2024-02-15T12:11:36;2.63;;;1.90;;
9950;SDS011;24074;49.254;6.702;2024-02-15T12:14:20;3.87;;;2.20;;
9950;SDS011;24074;49.254;6.702;2024-02-15T12:17:08;3.23;;;2.00;;
9950;SDS011;24074;49.254;6.702;2024-02-15T12:19:55;5.03;;;2.37;;
9950;SDS011;24074;49.254;6.702;2024-02-15T12:24:59;3.20;;;2.40;;
9950;SDS011;24074;49.254;6.702;2024-02-15T12:27:30;3.90;;;2.40;;
9950;SDS011;24074;49.254;6.702;2024-02-15T12:29:56;3.77;;;2.33;;
9950;SDS011;24074;49.254;6.702;2024-02-15T12:32:23;3.90;;;2.30;;
9950;SDS011;24074;49.254;6.702;2024-02-15T12:35:12;4.50;;;2.37;;
9950;SDS011;24074;49.254;6.702;2024-02-15T12:38:03;2.80;;;2.50;;
9950;SDS011;24074;49.254;6.702;2024-02-15T12:40:34;2.00;;;1.70;;
9950;SDS011;24074;49.254;6.702;2024-02-15T12:43:01;3.47;;;1.50;;
9950;SDS011;24074;49.254;6.702;2024-02-15T12:45:30;4.77;;;1.60;;
9950;SDS011;24074;49.254;6.702;2024-02-15T12:47:57;5.07;;;1.40;;
9950;SDS011;24074;49.254;6.702;2024-02-15T12:50:23;2.50;;;1.33;;
9950;SDS011;24074;49.254;6.702;2024-02-15T12:52:53;3.50;;;1.60;;
9950;SDS011;24074;49.254;6.702;2024-02-15T12:55:21;3.77;;;1.50;;
9950;SDS011;24074;49.254;6.702;2024-02-15T12:57:50;4.17;;;1.80;;
9950;SDS011;24074;49.254;6.702;2024-02-15T13:00:21;2.90;;;1.40;;
9950;SDS011;24074;49.254;6.702;2024-02-15T13:02:48;4.33;;;1.70;;
9950;SDS011;24074;49.254;6.702;2024-02-15T13:05:15;4.90;;;1.60;;
9950;SDS011;24074;49.254;6.702;2024-02-15T13:07:43;3.53;;;1.70;;
9950;SDS011;24074;49.254;6.702;2024-02-15T13:10:09;2.70;;;1.60;;
9950;SDS011;24074;49.254;6.702;2024-02-15T13:12:36;2.37;;;1.37;;
9950;SDS011;24074;49.254;6.702;2024-02-15T13:15:03;5.17;;;1.80;;
9950;SDS011;24074;49.254;6.702;2024-02-15T13:17:30;3.20;;;1.37;;
9950;SDS011;24074;49.254;6.702;2024-02-15T13:19:56;3.73;;;1.50;;
9950;SDS011;24074;49.254;6.702;2024-02-15T13:22:28;2.77;;;1.27;;
9950;SDS011;24074;49.254;6.702;2024-02-15T13:24:54;2.27;;;1.40;;
9950;SDS011;24074;49.254;6.702;2024-02-15T13:27:21;2.33;;;1.47;;
9950;SDS011;24074;49.254;6.702;2024-02-15T13:29:48;4.13;;;1.30;;
9950;SDS011;24074;49.254;6.702;2024-02-15T13:32:15;3.13;;;1.60;;
9950;SDS011;24074;49.254;6.702;2024-02-15T13:34:42;4.33;;;1.77;;
9950;SDS011;24074;49.254;6.702;2024-02-15T13:37:10;2.73;;;1.33;;
9950;SDS011;24074;49.254;6.702;2024-02-15T13:39:39;4.43;;;1.43;;
9950;SDS011;24074;49.254;6.702;2024-02-15T13:42:08;3.13;;;1.43;;
9950;SDS011;24074;49.254;6.702;2024-02-15T13:44:33;2.70;;;1.50;;
9950;SDS011;24074;49.254;6.702;2024-02-15T13:46:59;3.70;;;1.50;;
9950;SDS011;24074;49.254;6.702;2024-02-15T13:49:25;2.17;;;1.30;;
9950;SDS011;24074;49.254;6.702;2024-02-15T13:51:51;3.33;;;1.20;;
9950;SDS011;24074;49.254;6.702;2024-02-15T13:54:17;3.13;;;1.40;;
9950;SDS011;24074;49.254;6.702;2024-02-15T13:56:43;2.60;;;1.53;;
9950;SDS011;24074;49.254;6.702;2024-02-15T13:59:09;3.53;;;1.40;;
9950;SDS011;24074;49.254;6.702;2024-02-15T14:01:34;4.23;;;1.53;;
9950;SDS011;24074;49.254;6.702;2024-02-15T14:04:08;1.97;;;1.13;;
9950;SDS011;24074;49.254;6.702;2024-02-15T14:06:34;3.17;;;1.53;;
9950;SDS011;24074;49.254;6.702;2024-02-15T14:09:02;3.87;;;1.30;;
9950;SDS011;24074;49.254;6.702;2024-02-15T14:11:28;1.73;;;1.20;;
9950;SDS011;24074;49.254;6.702;2024-02-15T14:13:53;2.50;;;1.20;;
9950;SDS011;24074;49.254;6.702;2024-02-15T14:16:23;3.17;;;1.40;;
9950;SDS011;24074;49.254;6.702;2024-02-15T14:18:49;3.23;;;1.33;;
9950;SDS011;24074;49.254;6.702;2024-02-15T14:21:16;1.77;;;1.40;;
9950;SDS011;24074;49.254;6.702;2024-02-15T14:23:43;2.23;;;1.10;;
9950;SDS011;24074;49.254;6.702;2024-02-15T14:26:09;2.97;;;1.23;;
9950;SDS011;24074;49.254;6.702;2024-02-15T14:28:35;3.43;;;1.30;;
9950;SDS011;24074;49.254;6.702;2024-02-15T14:31:01;3.10;;;1.40;;
9950;SDS011;24074;49.254;6.702;2024-02-15T14:33:45;3.20;;;1.43;;
9950;SDS011;24074;49.254;6.702;2024-02-15T14:36:12;1.87;;;1.20;;
9950;SDS011;24074;49.254;6.702;2024-02-15T14:38:39;2.97;;;1.43;;
9950;SDS011;24074;49.254;6.702;2024-02-15T14:41:05;1.67;;;1.40;;
9950;SDS011;24074;49.254;6.702;2024-02-15T14:43:31;2.70;;;1.60;;
9950;SDS011;24074;49.254;6.702;2024-02-15T14:45:58;2.53;;;1.33;;
9950;SDS011;24074;49.254;6.702;2024-02-15T14:48:26;3.30;;;1.50;;
9950;SDS011;24074;49.254;6.702;2024-02-15T14:50:52;1.90;;;1.20;;
9950;SDS011;24074;49.254;6.702;2024-02-15T14:53:18;2.73;;;1.33;;
9950;SDS011;24074;49.254;6.702;2024-02-15T14:55:44;3.33;;;1.50;;
9950;SDS011;24074;49.254;6.702;2024-02-15T14:58:11;2.93;;;1.60;;
9950;SDS011;24074;49.254;6.702;2024-02-15T15:00:38;2.07;;;1.33;;
9950;SDS011;24074;49.254;6.702;2024-02-15T15:03:04;2.90;;;1.27;;
9950;SDS011;24074;49.254;6.702;2024-02-15T15:05:30;4.30;;;1.50;;
9950;SDS011;24074;49.254;6.702;2024-02-15T15:08:15;4.13;;;1.30;;
9950;SDS011;24074;49.254;6.702;2024-02-15T15:10:59;5.93;;;2.20;;
9950;SDS011;24074;49.254;6.702;2024-02-15T15:13:43;5.27;;;2.20;;
9950;SDS011;24074;49.254;6.702;2024-02-15T15:16:08;2.50;;;1.50;;
9950;SDS011;24074;49.254;6.702;2024-02-15T15:18:39;3.40;;;1.90;;
9950;SDS011;24074;49.254;6.702;2024-02-15T15:21:05;4.03;;;1.90;;
9950;SDS011;24074;49.254;6.702;2024-02-15T15:23:31;3.37;;;2.50;;